sensor_id;sensor_type;location;lat;lon;timestamp;P1;P2;P0
79038;PMS5003;68436;55.068;73.284;2023-03-31T00:02:04;9.00;8.00;5.00
79038;PMS5003;68436;55.068;73.284;2023-03-31T00:04:42;8.00;7.00;5.00
79038;PMS5003;68436;55.068;73.284;2023-03-31T00:07:17;9.75;7.00;5.00
79038;PMS5003;68436;55.068;73.284;2023-03-31T00:09:46;8.33;7.00;4.00
79038;PMS5003;68436;55.068;73.284;2023-03-31T00:12:13;7.00;6.00;5.00
79038;PMS5003;68436;55.068;73.284;2023-03-31T00:14:50;8.50;7.25;5.00
79038;PMS5003;68436;55.068;73.284;2023-03-31T00:17:16;6.25;5.50;3.00
79038;PMS5003;68436;55.068;73.284;2023-03-31T00:19:52;9.00;7.00;4.00
79038;PMS5003;68436;55.068;73.284;2023-03-31T00:22:24;7.25;6.25;4.00
79038;PMS5003;68436;55.068;73.284;2023-03-31T00:24:52;9.00;7.00;4.00
79038;PMS5003;68436;55.068;73.284;2023-03-31T00:27:28;9.00;7.00;4.00
79038;PMS5003;68436;55.068;73.284;2023-03-31T00:29:54;8.00;7.00;4.33
79038;PMS5003;68436;55.068;73.284;2023-03-31T00:32:20;7.00;6.00;4.33
79038;PMS5003;68436;55.068;73.284;2023-03-31T00:34:52;8.00;7.00;3.33
79038;PMS5003;68436;55.068;73.284;2023-03-31T00:37:18;10.00;7.25;4.00
79038;PMS5003;68436;55.068;73.284;2023-03-31T00:39:44;6.00;5.00;3.33
79038;PMS5003;68436;55.068;73.284;2023-03-31T00:42:10;6.00;5.00;3.00
79038;PMS5003;68436;55.068;73.284;2023-03-31T00:47:35;6.00;6.00;3.75
79038;PMS5003;68436;55.068;73.284;2023-03-31T00:50:00;5.33;4.00;2.00
79038;PMS5003;68436;55.068;73.284;2023-03-31T00:52:29;6.00;5.00;2.00
79038;PMS5003;68436;55.068;73.284;2023-03-31T00:54:58;10.00;7.00;3.00
79038;PMS5003;68436;55.068;73.284;2023-03-31T00:57:25;7.50;6.00;3.00
79038;PMS5003;68436;55.068;73.284;2023-03-31T01:00:01;7.00;5.00;4.00
79038;PMS5003;68436;55.068;73.284;2023-03-31T01:02:36;6.00;5.00;3.00
79038;PMS5003;68436;55.068;73.284;2023-03-31T01:05:06;7.33;5.00;3.00
79038;PMS5003;68436;55.068;73.284;2023-03-31T01:07:42;7.00;6.00;4.00
79038;PMS5003;68436;55.068;73.284;2023-03-31T01:10:09;6.00;4.00;3.00
79038;PMS5003;68436;55.068;73.284;2023-03-31T01:12:36;9.00;7.25;4.00
79038;PMS5003;68436;55.068;73.284;2023-03-31T01:15:08;6.00;5.00;3.00
79038;PMS5003;68436;55.068;73.284;2023-03-31T01:17:40;6.00;5.00;3.00
79038;PMS5003;68436;55.068;73.284;2023-03-31T01:20:26;7.25;5.50;4.00
79038;PMS5003;68436;55.068;73.284;2023-03-31T01:47:07;6.00;6.00;4.00
79038;PMS5003;68436;55.068;73.284;2023-03-31T01:52:02;9.00;7.00;4.00
79038;PMS5003;68436;55.068;73.284;2023-03-31T01:57:09;7.00;6.00;4.00
79038;PMS5003;68436;55.068;73.284;2023-03-31T01:59:39;5.33;4.00;2.00
79038;PMS5003;68436;55.068;73.284;2023-03-31T02:02:09;6.00;5.00;3.00
79038;PMS5003;68436;55.068;73.284;2023-03-31T02:04:45;6.00;4.33;2.00
79038;PMS5003;68436;55.068;73.284;2023-03-31T02:07:26;6.00;5.00;3.00
79038;PMS5003;68436;55.068;73.284;2023-03-31T02:10:03;5.67;4.00;3.00
79038;PMS5003;68436;55.068;73.284;2023-03-31T02:12:32;7.00;6.00;4.00
79038;PMS5003;68436;55.068;73.284;2023-03-31T02:14:59;5.25;4.00;3.00
79038;PMS5003;68436;55.068;73.284;2023-03-31T02:17:27;7.00;6.00;3.00
79038;PMS5003;68436;55.068;73.284;2023-03-31T02:20:02;8.67;7.00;4.00
79038;PMS5003;68436;55.068;73.284;2023-03-31T02:22:41;47.00;38.00;26.75
79038;PMS5003;68436;55.068;73.284;2023-03-31T02:25:09;11.33;9.00;6.00
79038;PMS5003;68436;55.068;73.284;2023-03-31T02:27:38;12.75;11.00;7.00
79038;PMS5003;68436;55.068;73.284;2023-03-31T02:30:05;9.67;9.00;5.33
79038;PMS5003;68436;55.068;73.284;2023-03-31T02:32:36;13.00;11.00;7.00
79038;PMS5003;68436;55.068;73.284;2023-03-31T02:35:03;15.00;11.67;8.00
79038;PMS5003;68436;55.068;73.284;2023-03-31T02:37:29;18.00;13.50;9.00
79038;PMS5003;68436;55.068;73.284;2023-03-31T02:39:56;14.00;12.00;7.33
79038;PMS5003;68436;55.068;73.284;2023-03-31T02:42:22;14.00;11.00;7.00
79038;PMS5003;68436;55.068;73.284;2023-03-31T02:44:50;18.67;15.33;10.00
79038;PMS5003;68436;55.068;73.284;2023-03-31T02:47:17;11.00;9.25;6.25
79038;PMS5003;68436;55.068;73.284;2023-03-31T02:49:51;18.00;15.00;9.00
79038;PMS5003;68436;55.068;73.284;2023-03-31T02:57:46;11.00;8.00;5.00
79038;PMS5003;68436;55.068;73.284;2023-03-31T03:00:26;4.00;4.00;2.00
79038;PMS5003;68436;55.068;73.284;2023-03-31T03:05:46;5.67;5.00;2.33
79038;PMS5003;68436;55.068;73.284;2023-03-31T03:14:03;7.00;4.75;3.00
79038;PMS5003;68436;55.068;73.284;2023-03-31T03:16:32;13.00;11.00;6.75
79038;PMS5003;68436;55.068;73.284;2023-03-31T03:19:02;19.00;14.00;8.75
79038;PMS5003;68436;55.068;73.284;2023-03-31T03:21:29;23.00;18.00;9.00
79038;PMS5003;68436;55.068;73.284;2023-03-31T03:23:56;15.00;12.00;7.00
79038;PMS5003;68436;55.068;73.284;2023-03-31T03:26:22;8.00;7.00;4.00
79038;PMS5003;68436;55.068;73.284;2023-03-31T03:28:58;4.50;4.00;3.00
79038;PMS5003;68436;55.068;73.284;2023-03-31T03:31:24;6.67;5.33;3.00
79038;PMS5003;68436;55.068;73.284;2023-03-31T03:33:50;12.00;10.00;6.50
79038;PMS5003;68436;55.068;73.284;2023-03-31T03:36:26;95.00;53.00;26.67
79038;PMS5003;68436;55.068;73.284;2023-03-31T03:38:52;13.50;10.00;6.00
79038;PMS5003;68436;55.068;73.284;2023-03-31T03:41:28;27.00;20.00;10.00
79038;PMS5003;68436;55.068;73.284;2023-03-31T03:43:54;20.00;15.00;8.00
79038;PMS5003;68436;55.068;73.284;2023-03-31T03:46:22;30.00;18.00;11.00
79038;PMS5003;68436;55.068;73.284;2023-03-31T03:48:48;11.00;9.00;5.00
79038;PMS5003;68436;55.068;73.284;2023-03-31T03:51:14;10.00;8.00;4.00
79038;PMS5003;68436;55.068;73.284;2023-03-31T03:53:40;7.75;7.25;4.50
79038;PMS5003;68436;55.068;73.284;2023-03-31T03:56:06;11.00;8.00;5.00
79038;PMS5003;68436;55.068;73.284;2023-03-31T03:58:32;12.50;12.00;9.00
79038;PMS5003;68436;55.068;73.284;2023-03-31T04:00:58;5.00;4.00;3.00
79038;PMS5003;68436;55.068;73.284;2023-03-31T04:03:24;9.25;7.75;4.25
79038;PMS5003;68436;55.068;73.284;2023-03-31T04:05:52;8.25;7.75;5.00
79038;PMS5003;68436;55.068;73.284;2023-03-31T04:08:20;3.25;3.00;2.00
79038;PMS5003;68436;55.068;73.284;2023-03-31T04:10:47;7.00;5.00;3.00
79038;PMS5003;68436;55.068;73.284;2023-03-31T04:13:14;7.00;6.00;4.00
79038;PMS5003;68436;55.068;73.284;2023-03-31T04:15:40;6.00;5.00;3.00
79038;PMS5003;68436;55.068;73.284;2023-03-31T04:18:06;4.00;3.75;2.00
79038;PMS5003;68436;55.068;73.284;2023-03-31T04:20:35;12.75;10.75;7.00
79038;PMS5003;68436;55.068;73.284;2023-03-31T04:23:03;6.25;5.50;3.50
79038;PMS5003;68436;55.068;73.284;2023-03-31T04:25:30;3.00;2.00;1.00
79038;PMS5003;68436;55.068;73.284;2023-03-31T04:28:02;6.00;5.00;3.00
79038;PMS5003;68436;55.068;73.284;2023-03-31T04:30:28;5.25;4.00;2.00
79038;PMS5003;68436;55.068;73.284;2023-03-31T04:32:58;11.75;8.00;4.00
79038;PMS5003;68436;55.068;73.284;2023-03-31T04:35:25;13.00;11.00;7.00
79038;PMS5003;68436;55.068;73.284;2023-03-31T04:37:52;4.00;3.00;2.00
79038;PMS5003;68436;55.068;73.284;2023-03-31T04:40:34;2.00;2.00;1.00
79038;PMS5003;68436;55.068;73.284;2023-03-31T04:43:00;3.00;2.00;1.00
79038;PMS5003;68436;55.068;73.284;2023-03-31T04:45:35;1.00;1.00;1.00
79038;PMS5003;68436;55.068;73.284;2023-03-31T04:48:01;2.25;2.00;1.25
79038;PMS5003;68436;55.068;73.284;2023-03-31T04:50:27;3.00;3.00;2.00
79038;PMS5003;68436;55.068;73.284;2023-03-31T04:52:53;5.25;5.00;3.00
79038;PMS5003;68436;55.068;73.284;2023-03-31T04:55:23;98.00;74.00;37.67
79038;PMS5003;68436;55.068;73.284;2023-03-31T04:57:50;11.00;8.00;5.00
79038;PMS5003;68436;55.068;73.284;2023-03-31T05:00:16;6.00;5.00;3.00
79038;PMS5003;68436;55.068;73.284;2023-03-31T05:02:42;13.25;11.50;8.00
79038;PMS5003;68436;55.068;73.284;2023-03-31T05:05:09;2.75;2.25;1.00
79038;PMS5003;68436;55.068;73.284;2023-03-31T05:07:45;5.00;4.00;2.00
79038;PMS5003;68436;55.068;73.284;2023-03-31T05:10:11;5.00;4.00;3.00
79038;PMS5003;68436;55.068;73.284;2023-03-31T05:12:37;5.50;4.00;3.00
79038;PMS5003;68436;55.068;73.284;2023-03-31T05:15:13;20.00;15.00;8.00
79038;PMS5003;68436;55.068;73.284;2023-03-31T05:17:44;8.00;7.00;4.00
79038;PMS5003;68436;55.068;73.284;2023-03-31T05:20:15;9.00;8.00;5.67
79038;PMS5003;68436;55.068;73.284;2023-03-31T05:22:42;5.50;5.00;4.00
79038;PMS5003;68436;55.068;73.284;2023-03-31T05:25:08;16.00;13.00;7.00
79038;PMS5003;68436;55.068;73.284;2023-03-31T05:27:34;16.75;11.00;6.00
79038;PMS5003;68436;55.068;73.284;2023-03-31T05:30:01;6.33;5.33;3.33
79038;PMS5003;68436;55.068;73.284;2023-03-31T05:32:27;6.00;5.00;3.50
79038;PMS5003;68436;55.068;73.284;2023-03-31T05:34:53;2.00;2.00;2.00
79038;PMS5003;68436;55.068;73.284;2023-03-31T05:37:23;2.00;2.00;1.00
79038;PMS5003;68436;55.068;73.284;2023-03-31T05:39:55;10.00;8.25;5.00
79038;PMS5003;68436;55.068;73.284;2023-03-31T05:42:21;11.00;9.00;6.00
79038;PMS5003;68436;55.068;73.284;2023-03-31T05:44:47;32.00;27.25;17.00
79038;PMS5003;68436;55.068;73.284;2023-03-31T05:47:16;10.00;9.00;6.00
79038;PMS5003;68436;55.068;73.284;2023-03-31T05:49:42;8.50;6.50;3.50
79038;PMS5003;68436;55.068;73.284;2023-03-31T05:52:08;3.00;3.00;1.00
79038;PMS5003;68436;55.068;73.284;2023-03-31T05:54:35;7.25;5.75;4.00
79038;PMS5003;68436;55.068;73.284;2023-03-31T05:57:01;5.00;4.00;3.00
79038;PMS5003;68436;55.068;73.284;2023-03-31T05:59:27;6.00;5.00;4.00
79038;PMS5003;68436;55.068;73.284;2023-03-31T06:01:54;7.00;6.00;3.00
79038;PMS5003;68436;55.068;73.284;2023-03-31T06:04:30;11.33;9.67;6.33
79038;PMS5003;68436;55.068;73.284;2023-03-31T06:07:07;4.00;4.00;2.75
79038;PMS5003;68436;55.068;73.284;2023-03-31T06:09:37;3.00;3.00;2.00
79038;PMS5003;68436;55.068;73.284;2023-03-31T06:12:03;3.00;3.00;2.00
79038;PMS5003;68436;55.068;73.284;2023-03-31T06:14:29;5.00;5.00;3.00
79038;PMS5003;68436;55.068;73.284;2023-03-31T06:16:55;38.00;25.00;13.00
79038;PMS5003;68436;55.068;73.284;2023-03-31T06:19:27;6.00;6.00;4.00
79038;PMS5003;68436;55.068;73.284;2023-03-31T06:21:53;5.25;4.75;3.00
79038;PMS5003;68436;55.068;73.284;2023-03-31T06:24:27;7.00;6.00;4.00
79038;PMS5003;68436;55.068;73.284;2023-03-31T06:26:53;4.00;4.00;2.75
79038;PMS5003;68436;55.068;73.284;2023-03-31T06:29:27;4.00;3.00;2.00
79038;PMS5003;68436;55.068;73.284;2023-03-31T06:32:04;2.00;2.00;2.00
79038;PMS5003;68436;55.068;73.284;2023-03-31T06:39:12;3.00;3.00;2.00
79038;PMS5003;68436;55.068;73.284;2023-03-31T06:41:38;3.00;3.00;1.33
79038;PMS5003;68436;55.068;73.284;2023-03-31T06:44:04;3.00;2.50;1.00
79038;PMS5003;68436;55.068;73.284;2023-03-31T06:46:31;4.75;4.00;2.00
79038;PMS5003;68436;55.068;73.284;2023-03-31T06:48:57;2.00;2.00;1.00
79038;PMS5003;68436;55.068;73.284;2023-03-31T06:51:23;3.00;2.00;1.00
79038;PMS5003;68436;55.068;73.284;2023-03-31T06:53:48;3.00;3.00;2.00
79038;PMS5003;68436;55.068;73.284;2023-03-31T06:56:16;2.50;2.00;1.00
79038;PMS5003;68436;55.068;73.284;2023-03-31T06:58:44;3.00;3.00;2.00
79038;PMS5003;68436;55.068;73.284;2023-03-31T07:01:10;3.00;2.00;2.00
79038;PMS5003;68436;55.068;73.284;2023-03-31T07:03:38;4.00;3.25;2.00
79038;PMS5003;68436;55.068;73.284;2023-03-31T07:06:05;7.00;5.75;3.00
79038;PMS5003;68436;55.068;73.284;2023-03-31T07:08:31;15.00;12.00;7.00
79038;PMS5003;68436;55.068;73.284;2023-03-31T07:11:07;3.00;3.00;2.00
79038;PMS5003;68436;55.068;73.284;2023-03-31T07:13:33;11.00;10.00;6.25
79038;PMS5003;68436;55.068;73.284;2023-03-31T07:15:59;3.33;3.00;2.00
79038;PMS5003;68436;55.068;73.284;2023-03-31T07:18:25;4.00;4.00;3.00
79038;PMS5003;68436;55.068;73.284;2023-03-31T07:20:56;5.00;4.00;3.00
79038;PMS5003;68436;55.068;73.284;2023-03-31T07:23:22;2.00;2.50;2.00
79038;PMS5003;68436;55.068;73.284;2023-03-31T07:25:48;3.00;3.00;2.00
79038;PMS5003;68436;55.068;73.284;2023-03-31T07:28:14;2.00;2.00;1.00
79038;PMS5003;68436;55.068;73.284;2023-03-31T07:30:41;3.00;3.00;1.00
79038;PMS5003;68436;55.068;73.284;2023-03-31T07:33:07;2.75;2.00;2.00
79038;PMS5003;68436;55.068;73.284;2023-03-31T07:35:36;4.00;3.00;2.00
79038;PMS5003;68436;55.068;73.284;2023-03-31T07:38:02;2.50;2.75;1.50
79038;PMS5003;68436;55.068;73.284;2023-03-31T07:40:28;5.00;4.00;3.00
79038;PMS5003;68436;55.068;73.284;2023-03-31T07:42:54;3.00;2.00;1.00
79038;PMS5003;68436;55.068;73.284;2023-03-31T07:45:22;5.00;4.00;2.67
79038;PMS5003;68436;55.068;73.284;2023-03-31T07:47:50;9.50;7.50;4.50
79038;PMS5003;68436;55.068;73.284;2023-03-31T07:50:16;4.00;3.00;2.00
79038;PMS5003;68436;55.068;73.284;2023-03-31T07:52:42;2.00;2.00;1.00
79038;PMS5003;68436;55.068;73.284;2023-03-31T07:55:14;3.00;2.67;2.00
79038;PMS5003;68436;55.068;73.284;2023-03-31T07:57:40;2.00;2.00;2.00
79038;PMS5003;68436;55.068;73.284;2023-03-31T08:00:07;27.67;23.33;15.00
79038;PMS5003;68436;55.068;73.284;2023-03-31T08:02:38;13.00;11.50;8.50
79038;PMS5003;68436;55.068;73.284;2023-03-31T08:05:06;6.67;5.67;4.00
79038;PMS5003;68436;55.068;73.284;2023-03-31T08:07:33;6.00;5.00;4.00
79038;PMS5003;68436;55.068;73.284;2023-03-31T08:09:59;3.00;3.00;2.00
79038;PMS5003;68436;55.068;73.284;2023-03-31T08:12:25;5.00;4.50;3.00
79038;PMS5003;68436;55.068;73.284;2023-03-31T08:14:51;5.00;4.00;2.00
79038;PMS5003;68436;55.068;73.284;2023-03-31T08:17:17;6.75;6.00;3.00
79038;PMS5003;68436;55.068;73.284;2023-03-31T08:19:42;5.00;4.00;3.00
79038;PMS5003;68436;55.068;73.284;2023-03-31T08:22:09;7.00;6.00;3.50
79038;PMS5003;68436;55.068;73.284;2023-03-31T08:24:35;15.00;13.00;8.00
79038;PMS5003;68436;55.068;73.284;2023-03-31T08:27:00;11.75;10.00;7.00
79038;PMS5003;68436;55.068;73.284;2023-03-31T08:29:27;9.00;8.00;5.00
79038;PMS5003;68436;55.068;73.284;2023-03-31T08:31:53;16.75;13.00;7.00
79038;PMS5003;68436;55.068;73.284;2023-03-31T08:34:27;19.00;16.00;10.00
79038;PMS5003;68436;55.068;73.284;2023-03-31T08:36:53;14.75;12.00;8.00
79038;PMS5003;68436;55.068;73.284;2023-03-31T08:39:27;15.00;12.00;7.00
79038;PMS5003;68436;55.068;73.284;2023-03-31T08:42:00;15.00;14.00;8.00
79038;PMS5003;68436;55.068;73.284;2023-03-31T08:44:34;9.00;8.00;5.00
79038;PMS5003;68436;55.068;73.284;2023-03-31T08:47:03;7.25;6.00;3.00
79038;PMS5003;68436;55.068;73.284;2023-03-31T08:49:32;14.33;12.33;7.33
79038;PMS5003;68436;55.068;73.284;2023-03-31T08:52:03;7.50;7.00;5.00
79038;PMS5003;68436;55.068;73.284;2023-03-31T08:56:56;9.25;8.00;5.00
79038;PMS5003;68436;55.068;73.284;2023-03-31T08:59:33;13.00;11.00;6.00
79038;PMS5003;68436;55.068;73.284;2023-03-31T09:02:01;7.00;6.25;4.75
79038;PMS5003;68436;55.068;73.284;2023-03-31T09:07:28;5.00;5.00;3.00
79038;PMS5003;68436;55.068;73.284;2023-03-31T09:15:27;13.67;11.00;6.00
79038;PMS5003;68436;55.068;73.284;2023-03-31T09:17:54;5.25;4.50;3.00
79038;PMS5003;68436;55.068;73.284;2023-03-31T09:20:24;5.67;5.00;4.00
79038;PMS5003;68436;55.068;73.284;2023-03-31T09:23:00;9.00;8.00;5.00
79038;PMS5003;68436;55.068;73.284;2023-03-31T09:25:28;14.50;12.25;8.00
79038;PMS5003;68436;55.068;73.284;2023-03-31T09:27:56;6.50;6.00;4.00
79038;PMS5003;68436;55.068;73.284;2023-03-31T09:30:25;4.00;4.00;3.00
79038;PMS5003;68436;55.068;73.284;2023-03-31T09:32:53;6.00;5.00;3.00
79038;PMS5003;68436;55.068;73.284;2023-03-31T09:35:24;5.00;5.00;3.00
79038;PMS5003;68436;55.068;73.284;2023-03-31T09:37:51;5.00;4.75;3.00
79038;PMS5003;68436;55.068;73.284;2023-03-31T09:40:19;11.00;9.00;6.00
79038;PMS5003;68436;55.068;73.284;2023-03-31T09:42:50;10.00;8.00;6.00
79038;PMS5003;68436;55.068;73.284;2023-03-31T09:45:19;11.50;9.25;5.00
79038;PMS5003;68436;55.068;73.284;2023-03-31T09:47:55;7.00;6.25;4.00
79038;PMS5003;68436;55.068;73.284;2023-03-31T09:50:22;10.00;8.00;5.00
79038;PMS5003;68436;55.068;73.284;2023-03-31T09:52:57;4.25;4.00;3.00
79038;PMS5003;68436;55.068;73.284;2023-03-31T09:55:32;7.00;6.00;4.00
79038;PMS5003;68436;55.068;73.284;2023-03-31T09:58:04;8.00;7.00;4.75
79038;PMS5003;68436;55.068;73.284;2023-03-31T10:00:32;8.00;7.00;4.00
79038;PMS5003;68436;55.068;73.284;2023-03-31T10:03:01;32.00;26.00;16.00
79038;PMS5003;68436;55.068;73.284;2023-03-31T10:05:35;4.00;4.00;2.00
79038;PMS5003;68436;55.068;73.284;2023-03-31T10:10:50;6.00;5.00;3.00
79038;PMS5003;68436;55.068;73.284;2023-03-31T10:13:24;6.50;6.00;4.00
79038;PMS5003;68436;55.068;73.284;2023-03-31T10:15:53;6.00;5.00;3.00
79038;PMS5003;68436;55.068;73.284;2023-03-31T10:18:19;11.00;8.00;6.00
79038;PMS5003;68436;55.068;73.284;2023-03-31T10:20:49;12.00;11.00;7.00
79038;PMS5003;68436;55.068;73.284;2023-03-31T10:23:17;27.50;23.00;13.00
79038;PMS5003;68436;55.068;73.284;2023-03-31T10:25:47;4.00;4.00;3.00
79038;PMS5003;68436;55.068;73.284;2023-03-31T10:28:17;5.00;5.00;3.00
79038;PMS5003;68436;55.068;73.284;2023-03-31T10:30:48;5.00;4.00;3.00
79038;PMS5003;68436;55.068;73.284;2023-03-31T10:33:16;9.00;7.00;4.00
79038;PMS5003;68436;55.068;73.284;2023-03-31T10:35:43;7.25;5.75;3.00
79038;PMS5003;68436;55.068;73.284;2023-03-31T10:38:16;15.00;11.75;6.00
79038;PMS5003;68436;55.068;73.284;2023-03-31T10:40:50;11.33;10.00;6.00
79038;PMS5003;68436;55.068;73.284;2023-03-31T10:43:18;19.00;17.00;9.00
79038;PMS5003;68436;55.068;73.284;2023-03-31T10:45:48;33.33;27.00;17.33
79038;PMS5003;68436;55.068;73.284;2023-03-31T10:48:16;8.00;7.00;4.75
79038;PMS5003;68436;55.068;73.284;2023-03-31T10:50:43;9.00;8.00;5.00
79038;PMS5003;68436;55.068;73.284;2023-03-31T10:53:19;12.00;11.00;7.75
79038;PMS5003;68436;55.068;73.284;2023-03-31T10:56:00;16.00;14.00;10.00
79038;PMS5003;68436;55.068;73.284;2023-03-31T11:22:43;7.25;6.00;3.50
79038;PMS5003;68436;55.068;73.284;2023-03-31T11:30:29;11.00;9.00;5.00
79038;PMS5003;68436;55.068;73.284;2023-03-31T11:35:34;9.00;7.00;5.00
79038;PMS5003;68436;55.068;73.284;2023-03-31T11:45:52;7.00;6.00;3.00
79038;PMS5003;68436;55.068;73.284;2023-03-31T11:48:27;6.00;5.00;3.00
79038;PMS5003;68436;55.068;73.284;2023-03-31T11:50:56;11.00;9.00;5.67
79038;PMS5003;68436;55.068;73.284;2023-03-31T11:53:34;16.00;14.00;7.75
79038;PMS5003;68436;55.068;73.284;2023-03-31T11:56:02;15.00;13.00;7.00
79038;PMS5003;68436;55.068;73.284;2023-03-31T11:59:02;9.00;8.00;5.00
79038;PMS5003;68436;55.068;73.284;2023-03-31T12:01:56;10.00;8.00;5.00
79038;PMS5003;68436;55.068;73.284;2023-03-31T12:04:24;12.00;10.00;6.00
79038;PMS5003;68436;55.068;73.284;2023-03-31T12:06:57;12.00;10.00;5.00
79038;PMS5003;68436;55.068;73.284;2023-03-31T12:09:39;37.00;30.00;19.00
79038;PMS5003;68436;55.068;73.284;2023-03-31T12:12:11;27.50;23.00;13.00
79038;PMS5003;68436;55.068;73.284;2023-03-31T12:14:50;16.00;13.00;6.75
79038;PMS5003;68436;55.068;73.284;2023-03-31T12:17:24;9.75;8.00;5.00
79038;PMS5003;68436;55.068;73.284;2023-03-31T12:19:52;8.00;7.00;4.00
79038;PMS5003;68436;55.068;73.284;2023-03-31T12:22:22;8.75;6.75;4.00
79038;PMS5003;68436;55.068;73.284;2023-03-31T12:25:00;10.00;9.00;5.00
79038;PMS5003;68436;55.068;73.284;2023-03-31T12:27:36;11.50;9.00;6.00
79038;PMS5003;68436;55.068;73.284;2023-03-31T12:30:11;14.00;11.00;6.75
79038;PMS5003;68436;55.068;73.284;2023-03-31T12:32:40;19.00;16.00;10.00
79038;PMS5003;68436;55.068;73.284;2023-03-31T12:35:11;25.00;21.33;13.00
79038;PMS5003;68436;55.068;73.284;2023-03-31T12:40:36;12.25;10.50;7.00
79038;PMS5003;68436;55.068;73.284;2023-03-31T12:45:35;25.00;21.00;13.00
79038;PMS5003;68436;55.068;73.284;2023-03-31T12:53:37;21.00;17.75;10.75
79038;PMS5003;68436;55.068;73.284;2023-03-31T12:56:06;22.00;19.00;12.00
79038;PMS5003;68436;55.068;73.284;2023-03-31T12:58:36;14.00;12.00;7.50
79038;PMS5003;68436;55.068;73.284;2023-03-31T13:01:05;29.67;24.00;14.00
79038;PMS5003;68436;55.068;73.284;2023-03-31T13:06:57;26.33;21.67;12.33
79038;PMS5003;68436;55.068;73.284;2023-03-31T13:09:01;19.75;16.00;8.75
79038;PMS5003;68436;55.068;73.284;2023-03-31T13:14:06;13.00;11.00;7.00
79038;PMS5003;68436;55.068;73.284;2023-03-31T13:16:37;11.00;9.00;6.00
79038;PMS5003;68436;55.068;73.284;2023-03-31T13:19:03;10.00;8.00;5.00
79038;PMS5003;68436;55.068;73.284;2023-03-31T13:21:29;16.00;12.33;8.00
79038;PMS5003;68436;55.068;73.284;2023-03-31T13:24:00;13.00;10.00;6.00
79038;PMS5003;68436;55.068;73.284;2023-03-31T13:34:27;7.00;6.00;3.00
79038;PMS5003;68436;55.068;73.284;2023-03-31T13:39:33;8.00;7.00;5.00
79038;PMS5003;68436;55.068;73.284;2023-03-31T13:58:19;39.00;29.25;16.00
79038;PMS5003;68436;55.068;73.284;2023-03-31T14:00:52;42.00;31.00;18.00
79038;PMS5003;68436;55.068;73.284;2023-03-31T14:05:55;38.00;28.00;16.33
79038;PMS5003;68436;55.068;73.284;2023-03-31T14:08:44;55.00;40.50;22.75
79038;PMS5003;68436;55.068;73.284;2023-03-31T14:11:15;7.00;6.00;5.00
79038;PMS5003;68436;55.068;73.284;2023-03-31T14:13:58;8.50;7.00;4.00
79038;PMS5003;68436;55.068;73.284;2023-03-31T14:16:25;6.00;5.00;3.00
79038;PMS5003;68436;55.068;73.284;2023-03-31T14:18:51;12.00;10.00;6.50
79038;PMS5003;68436;55.068;73.284;2023-03-31T14:21:23;7.00;7.00;5.00
79038;PMS5003;68436;55.068;73.284;2023-03-31T14:24:05;7.00;6.25;4.00
79038;PMS5003;68436;55.068;73.284;2023-03-31T14:26:46;7.33;6.00;4.00
79038;PMS5003;68436;55.068;73.284;2023-03-31T14:31:54;12.00;9.75;5.00
79038;PMS5003;68436;55.068;73.284;2023-03-31T14:37:05;22.00;19.00;12.00
79038;PMS5003;68436;55.068;73.284;2023-03-31T14:39:34;36.50;28.00;17.00
79038;PMS5003;68436;55.068;73.284;2023-03-31T14:42:16;35.50;29.25;18.50
79038;PMS5003;68436;55.068;73.284;2023-03-31T14:44:43;40.00;32.00;22.00
79038;PMS5003;68436;55.068;73.284;2023-03-31T14:47:12;56.00;43.00;24.75
79038;PMS5003;68436;55.068;73.284;2023-03-31T14:49:38;125.33;100.00;59.33
79038;PMS5003;68436;55.068;73.284;2023-03-31T14:52:14;63.75;48.50;29.50
79038;PMS5003;68436;55.068;73.284;2023-03-31T14:54:42;52.00;41.33;27.33
79038;PMS5003;68436;55.068;73.284;2023-03-31T14:57:09;67.75;51.00;33.00
79038;PMS5003;68436;55.068;73.284;2023-03-31T14:59:35;93.00;72.75;44.50
79038;PMS5003;68436;55.068;73.284;2023-03-31T15:02:06;76.50;59.50;35.25
79038;PMS5003;68436;55.068;73.284;2023-03-31T15:04:40;68.33;50.33;28.67
79038;PMS5003;68436;55.068;73.284;2023-03-31T15:07:10;56.25;42.75;25.25
79038;PMS5003;68436;55.068;73.284;2023-03-31T15:09:36;65.50;50.50;31.50
79038;PMS5003;68436;55.068;73.284;2023-03-31T15:12:10;58.00;44.00;27.00
79038;PMS5003;68436;55.068;73.284;2023-03-31T15:14:42;60.67;46.33;27.00
79038;PMS5003;68436;55.068;73.284;2023-03-31T15:17:23;52.75;40.50;24.75
79038;PMS5003;68436;55.068;73.284;2023-03-31T15:19:59;87.67;66.33;36.00
79038;PMS5003;68436;55.068;73.284;2023-03-31T15:22:36;60.00;46.00;27.00
79038;PMS5003;68436;55.068;73.284;2023-03-31T15:25:02;43.00;33.67;22.00
79038;PMS5003;68436;55.068;73.284;2023-03-31T15:27:33;38.50;30.00;18.50
79038;PMS5003;68436;55.068;73.284;2023-03-31T15:30:01;42.00;33.00;20.00
79038;PMS5003;68436;55.068;73.284;2023-03-31T15:32:28;43.75;33.25;22.25
79038;PMS5003;68436;55.068;73.284;2023-03-31T15:34:55;62.00;46.33;28.67
79038;PMS5003;68436;55.068;73.284;2023-03-31T15:37:26;78.00;61.25;34.00
79038;PMS5003;68436;55.068;73.284;2023-03-31T15:39:56;54.33;42.00;26.00
79038;PMS5003;68436;55.068;73.284;2023-03-31T15:42:27;68.00;49.00;30.00
79038;PMS5003;68436;55.068;73.284;2023-03-31T15:44:55;67.00;51.00;31.00
79038;PMS5003;68436;55.068;73.284;2023-03-31T15:47:27;45.25;37.00;23.00
79038;PMS5003;68436;55.068;73.284;2023-03-31T15:49:57;48.00;36.00;22.00
79038;PMS5003;68436;55.068;73.284;2023-03-31T15:52:30;48.00;38.00;23.50
79038;PMS5003;68436;55.068;73.284;2023-03-31T15:54:57;49.75;38.50;25.00
79038;PMS5003;68436;55.068;73.284;2023-03-31T15:57:34;42.75;33.75;21.00
79038;PMS5003;68436;55.068;73.284;2023-03-31T16:00:00;47.00;37.00;23.00
79038;PMS5003;68436;55.068;73.284;2023-03-31T16:02:34;52.75;40.00;25.00
79038;PMS5003;68436;55.068;73.284;2023-03-31T16:05:03;48.67;37.00;22.00
79038;PMS5003;68436;55.068;73.284;2023-03-31T16:07:31;51.00;40.00;26.00
79038;PMS5003;68436;55.068;73.284;2023-03-31T16:10:08;39.75;32.75;21.00
79038;PMS5003;68436;55.068;73.284;2023-03-31T16:12:39;40.00;32.00;21.00
79038;PMS5003;68436;55.068;73.284;2023-03-31T16:15:09;43.00;34.00;21.00
79038;PMS5003;68436;55.068;73.284;2023-03-31T16:17:39;44.00;33.00;21.00
79038;PMS5003;68436;55.068;73.284;2023-03-31T16:20:15;42.50;33.75;22.00
79038;PMS5003;68436;55.068;73.284;2023-03-31T16:22:44;47.00;36.00;22.00
79038;PMS5003;68436;55.068;73.284;2023-03-31T16:25:15;44.33;35.00;23.00
79038;PMS5003;68436;55.068;73.284;2023-03-31T16:27:42;48.00;38.00;23.00
79038;PMS5003;68436;55.068;73.284;2023-03-31T16:30:13;54.00;40.33;25.00
79038;PMS5003;68436;55.068;73.284;2023-03-31T16:32:56;50.25;39.25;25.75
79038;PMS5003;68436;55.068;73.284;2023-03-31T16:35:23;55.67;41.00;25.00
79038;PMS5003;68436;55.068;73.284;2023-03-31T16:37:52;57.00;42.50;27.00
79038;PMS5003;68436;55.068;73.284;2023-03-31T16:40:18;57.25;42.00;24.50
79038;PMS5003;68436;55.068;73.284;2023-03-31T16:43:04;55.00;42.25;25.00
79038;PMS5003;68436;55.068;73.284;2023-03-31T16:45:30;57.00;44.00;27.00
79038;PMS5003;68436;55.068;73.284;2023-03-31T16:47:56;59.75;45.00;28.00